sensor_id;sensor_type;location;lat;lon;timestamp;pressure;altitude;pressure_sealevel;temperature;humidity
20860;BME280;10590;48.154;11.514;2022-12-10T00:01:33;94315.13;;;0.37;100.00
20860;BME280;10590;48.154;11.514;2022-12-10T00:06:36;94323.53;;;0.26;100.00
20860;BME280;10590;48.154;11.514;2022-12-10T00:11:40;94315.94;;;0.19;100.00
20860;BME280;10590;48.154;11.514;2022-12-10T00:16:42;94308.78;;;0.19;100.00
20860;BME280;10590;48.154;11.514;2022-12-10T00:21:44;94308.59;;;0.16;100.00
20860;BME280;10590;48.154;11.514;2022-12-10T00:26:48;94302.63;;;0.24;100.00
20860;BME280;10590;48.154;11.514;2022-12-10T00:31:49;94293.16;;;0.37;100.00
20860;BME280;10590;48.154;11.514;2022-12-10T00:36:51;94306.31;;;0.42;100.00
20860;BME280;10590;48.154;11.514;2022-12-10T00:41:54;94317.00;;;0.37;100.00
20860;BME280;10590;48.154;11.514;2022-12-10T00:46:55;94312.91;;;0.44;100.00
20860;BME280;10590;48.154;11.514;2022-12-10T00:51:57;94324.66;;;0.38;100.00
20860;BME280;10590;48.154;11.514;2022-12-10T00:57:00;94324.22;;;0.31;100.00
20860;BME280;10590;48.154;11.514;2022-12-10T01:02:02;94330.03;;;0.33;100.00
20860;BME280;10590;48.154;11.514;2022-12-10T01:07:04;94345.06;;;0.38;100.00
20860;BME280;10590;48.154;11.514;2022-12-10T01:12:08;94346.06;;;0.42;100.00
20860;BME280;10590;48.154;11.514;2022-12-10T01:17:10;94342.16;;;0.53;100.00
20860;BME280;10590;48.154;11.514;2022-12-10T01:22:11;94337.53;;;0.45;100.00
20860;BME280;10590;48.154;11.514;2022-12-10T01:27:14;94338.09;;;0.42;100.00
20860;BME280;10590;48.154;11.514;2022-12-10T01:32:16;94330.78;;;0.53;100.00
20860;BME280;10590;48.154;11.514;2022-12-10T01:37:18;94347.81;;;0.33;100.00
20860;BME280;10590;48.154;11.514;2022-12-10T01:42:21;94340.94;;;0.13;100.00
20860;BME280;10590;48.154;11.514;2022-12-10T01:47:22;94344.81;;;0.02;100.00
20860;BME280;10590;48.154;11.514;2022-12-10T01:52:24;94354.75;;;0.29;100.00
20860;BME280;10590;48.154;11.514;2022-12-10T01:57:29;94357.19;;;0.25;100.00
20860;BME280;10590;48.154;11.514;2022-12-10T02:02:41;94352.03;;;0.15;100.00
20860;BME280;10590;48.154;11.514;2022-12-10T02:07:55;94364.06;;;0.26;100.00
20860;BME280;10590;48.154;11.514;2022-12-10T02:13:05;94362.69;;;0.29;100.00
20860;BME280;10590;48.154;11.514;2022-12-10T02:18:12;94355.19;;;0.17;100.00
20860;BME280;10590;48.154;11.514;2022-12-10T02:23:17;94355.84;;;0.28;100.00
20860;BME280;10590;48.154;11.514;2022-12-10T02:28:27;94365.41;;;0.23;100.00
20860;BME280;10590;48.154;11.514;2022-12-10T02:33:35;94346.16;;;0.18;100.00
20860;BME280;10590;48.154;11.514;2022-12-10T02:38:39;94347.25;;;-0.02;100.00
20860;BME280;10590;48.154;11.514;2022-12-10T02:43:43;94342.44;;;0.19;100.00
20860;BME280;10590;48.154;11.514;2022-12-10T02:48:51;94340.72;;;0.28;100.00
20860;BME280;10590;48.154;11.514;2022-12-10T02:54:00;94330.59;;;0.30;100.00
20860;BME280;10590;48.154;11.514;2022-12-10T02:59:14;94336.13;;;0.15;100.00
20860;BME280;10590;48.154;11.514;2022-12-10T03:04:23;94329.72;;;0.35;100.00
20860;BME280;10590;48.154;11.514;2022-12-10T03:09:30;94334.34;;;0.29;100.00
20860;BME280;10590;48.154;11.514;2022-12-10T03:14:34;94321.41;;;0.09;100.00
20860;BME280;10590;48.154;11.514;2022-12-10T03:19:42;94323.88;;;0.19;100.00
20860;BME280;10590;48.154;11.514;2022-12-10T03:24:44;94324.41;;;0.21;100.00
20860;BME280;10590;48.154;11.514;2022-12-10T03:29:48;94326.19;;;0.07;100.00
20860;BME280;10590;48.154;11.514;2022-12-10T03:34:53;94325.63;;;0.10;100.00
20860;BME280;10590;48.154;11.514;2022-12-10T03:39:56;94314.81;;;-0.13;100.00
20860;BME280;10590;48.154;11.514;2022-12-10T03:44:58;94313.78;;;-0.12;100.00
20860;BME280;10590;48.154;11.514;2022-12-10T03:50:02;94317.91;;;-0.25;100.00
20860;BME280;10590;48.154;11.514;2022-12-10T03:55:08;94326.78;;;-0.15;100.00
20860;BME280;10590;48.154;11.514;2022-12-10T04:00:11;94313.59;;;-0.20;100.00
20860;BME280;10590;48.154;11.514;2022-12-10T04:05:15;94317.13;;;-0.25;100.00
20860;BME280;10590;48.154;11.514;2022-12-10T04:10:19;94333.56;;;-0.09;100.00
20860;BME280;10590;48.154;11.514;2022-12-10T04:15:20;94336.44;;;0.13;100.00
20860;BME280;10590;48.154;11.514;2022-12-10T04:20:41;94335.94;;;-0.08;100.00
20860;BME280;10590;48.154;11.514;2022-12-10T04:26:00;94334.09;;;-0.07;100.00
20860;BME280;10590;48.154;11.514;2022-12-10T04:31:18;94344.25;;;-0.14;100.00
20860;BME280;10590;48.154;11.514;2022-12-10T04:36:21;94345.59;;;0.21;100.00
20860;BME280;10590;48.154;11.514;2022-12-10T04:41:23;94349.25;;;0.06;100.00
20860;BME280;10590;48.154;11.514;2022-12-10T04:46:24;94357.72;;;0.08;100.00
20860;BME280;10590;48.154;11.514;2022-12-10T04:51:27;94357.66;;;0.27;100.00
20860;BME280;10590;48.154;11.514;2022-12-10T04:56:29;94336.50;;;-0.30;100.00
20860;BME280;10590;48.154;11.514;2022-12-10T05:01:31;94339.31;;;-0.02;100.00
20860;BME280;10590;48.154;11.514;2022-12-10T05:06:35;94344.09;;;-0.04;100.00
20860;BME280;10590;48.154;11.514;2022-12-10T05:11:37;94349.50;;;0.23;100.00
20860;BME280;10590;48.154;11.514;2022-12-10T05:16:38;94347.69;;;0.05;100.00
20860;BME280;10590;48.154;11.514;2022-12-10T05:21:41;94333.91;;;0.03;100.00
20860;BME280;10590;48.154;11.514;2022-12-10T05:27:01;94324.91;;;-0.34;100.00
20860;BME280;10590;48.154;11.514;2022-12-10T05:32:03;94312.75;;;-0.54;100.00
20860;BME280;10590;48.154;11.514;2022-12-10T05:37:06;94333.00;;;-0.25;100.00
20860;BME280;10590;48.154;11.514;2022-12-10T05:42:08;94339.22;;;0.03;100.00
20860;BME280;10590;48.154;11.514;2022-12-10T05:47:09;94357.19;;;0.06;100.00
20860;BME280;10590;48.154;11.514;2022-12-10T05:52:13;94353.06;;;0.00;100.00
20860;BME280;10590;48.154;11.514;2022-12-10T05:57:14;94357.69;;;-0.11;100.00
20860;BME280;10590;48.154;11.514;2022-12-10T06:02:16;94363.44;;;-0.04;100.00
20860;BME280;10590;48.154;11.514;2022-12-10T06:07:19;94368.94;;;-0.19;100.00
20860;BME280;10590;48.154;11.514;2022-12-10T06:12:20;94371.72;;;-0.10;100.00
20860;BME280;10590;48.154;11.514;2022-12-10T06:17:22;94367.22;;;-0.10;100.00
20860;BME280;10590;48.154;11.514;2022-12-10T06:22:25;94361.13;;;-0.10;100.00
20860;BME280;10590;48.154;11.514;2022-12-10T06:27:29;94353.31;;;-0.20;100.00
20860;BME280;10590;48.154;11.514;2022-12-10T06:32:31;94356.75;;;-0.39;100.00
20860;BME280;10590;48.154;11.514;2022-12-10T06:37:34;94357.47;;;-0.14;100.00
20860;BME280;10590;48.154;11.514;2022-12-10T06:42:36;94356.47;;;-0.18;100.00
20860;BME280;10590;48.154;11.514;2022-12-10T06:47:38;94363.19;;;-0.26;100.00
20860;BME280;10590;48.154;11.514;2022-12-10T06:52:41;94367.75;;;-0.32;100.00
20860;BME280;10590;48.154;11.514;2022-12-10T06:57:42;94358.69;;;-0.26;100.00
20860;BME280;10590;48.154;11.514;2022-12-10T07:02:44;94354.41;;;-0.21;100.00
20860;BME280;10590;48.154;11.514;2022-12-10T07:07:49;94360.34;;;-0.11;100.00
20860;BME280;10590;48.154;11.514;2022-12-10T07:12:51;94369.78;;;-0.05;100.00
20860;BME280;10590;48.154;11.514;2022-12-10T07:17:53;94368.88;;;0.05;100.00
20860;BME280;10590;48.154;11.514;2022-12-10T07:22:56;94373.66;;;0.03;100.00
20860;BME280;10590;48.154;11.514;2022-12-10T07:27:57;94390.25;;;-0.10;100.00
20860;BME280;10590;48.154;11.514;2022-12-10T07:32:59;94397.28;;;-0.01;100.00
20860;BME280;10590;48.154;11.514;2022-12-10T07:38:02;94395.19;;;0.15;100.00
20860;BME280;10590;48.154;11.514;2022-12-10T07:43:03;94386.59;;;0.23;100.00
20860;BME280;10590;48.154;11.514;2022-12-10T07:48:09;94388.97;;;0.44;100.00
20860;BME280;10590;48.154;11.514;2022-12-10T07:53:12;94381.72;;;0.49;100.00
20860;BME280;10590;48.154;11.514;2022-12-10T07:58:13;94381.59;;;0.73;100.00
20860;BME280;10590;48.154;11.514;2022-12-10T08:03:15;94387.53;;;0.33;100.00
20860;BME280;10590;48.154;11.514;2022-12-10T08:08:18;94387.69;;;0.41;100.00
20860;BME280;10590;48.154;11.514;2022-12-10T08:13:20;94383.13;;;0.28;100.00
20860;BME280;10590;48.154;11.514;2022-12-10T08:18:21;94383.81;;;0.34;100.00
20860;BME280;10590;48.154;11.514;2022-12-10T08:23:25;94393.63;;;0.33;100.00
20860;BME280;10590;48.154;11.514;2022-12-10T08:28:27;94396.16;;;0.24;100.00
20860;BME280;10590;48.154;11.514;2022-12-10T08:33:32;94407.75;;;0.29;100.00
20860;BME280;10590;48.154;11.514;2022-12-10T08:38:35;94404.38;;;0.23;100.00
20860;BME280;10590;48.154;11.514;2022-12-10T08:43:39;94396.50;;;0.37;100.00
20860;BME280;10590;48.154;11.514;2022-12-10T08:48:42;94392.28;;;0.36;100.00
20860;BME280;10590;48.154;11.514;2022-12-10T08:53:45;94400.22;;;0.17;100.00
20860;BME280;10590;48.154;11.514;2022-12-10T08:58:46;94408.81;;;0.28;100.00
20860;BME280;10590;48.154;11.514;2022-12-10T09:03:48;94412.81;;;0.44;100.00
20860;BME280;10590;48.154;11.514;2022-12-10T09:08:52;94410.50;;;0.75;100.00
20860;BME280;10590;48.154;11.514;2022-12-10T09:13:54;94418.91;;;0.63;100.00
20860;BME280;10590;48.154;11.514;2022-12-10T09:19:12;94415.16;;;0.64;100.00
20860;BME280;10590;48.154;11.514;2022-12-10T09:24:18;94425.94;;;0.87;100.00
20860;BME280;10590;48.154;11.514;2022-12-10T09:29:20;94429.56;;;0.58;100.00
20860;BME280;10590;48.154;11.514;2022-12-10T09:34:22;94431.16;;;0.59;100.00
20860;BME280;10590;48.154;11.514;2022-12-10T09:39:24;94437.94;;;0.46;100.00
20860;BME280;10590;48.154;11.514;2022-12-10T09:44:35;94431.78;;;0.51;100.00
20860;BME280;10590;48.154;11.514;2022-12-10T09:49:46;94434.38;;;0.56;100.00
20860;BME280;10590;48.154;11.514;2022-12-10T09:54:57;94430.22;;;0.50;100.00
20860;BME280;10590;48.154;11.514;2022-12-10T10:00:17;94427.28;;;0.52;100.00
20860;BME280;10590;48.154;11.514;2022-12-10T10:05:22;94430.72;;;0.52;100.00
20860;BME280;10590;48.154;11.514;2022-12-10T10:10:28;94423.69;;;0.61;100.00
20860;BME280;10590;48.154;11.514;2022-12-10T10:15:32;94417.69;;;0.56;100.00
20860;BME280;10590;48.154;11.514;2022-12-10T10:20:34;94419.03;;;0.53;100.00
20860;BME280;10590;48.154;11.514;2022-12-10T10:25:38;94422.47;;;0.54;100.00
20860;BME280;10590;48.154;11.514;2022-12-10T10:30:41;94420.25;;;0.61;100.00
20860;BME280;10590;48.154;11.514;2022-12-10T10:35:47;94415.53;;;0.58;100.00
20860;BME280;10590;48.154;11.514;2022-12-10T10:40:52;94429.00;;;0.61;100.00
20860;BME280;10590;48.154;11.514;2022-12-10T10:46:17;94408.28;;;0.63;100.00
20860;BME280;10590;48.154;11.514;2022-12-10T10:51:22;94407.00;;;0.61;100.00
20860;BME280;10590;48.154;11.514;2022-12-10T10:56:26;94417.03;;;0.96;100.00
20860;BME280;10590;48.154;11.514;2022-12-10T11:01:45;94414.38;;;0.96;100.00
20860;BME280;10590;48.154;11.514;2022-12-10T11:06:49;94413.94;;;0.89;100.00
20860;BME280;10590;48.154;11.514;2022-12-10T11:11:58;94397.31;;;0.51;100.00
20860;BME280;10590;48.154;11.514;2022-12-10T11:17:12;94405.44;;;0.41;100.00
20860;BME280;10590;48.154;11.514;2022-12-10T11:22:21;94396.91;;;0.44;100.00
20860;BME280;10590;48.154;11.514;2022-12-10T11:27:36;94406.28;;;0.88;100.00
20860;BME280;10590;48.154;11.514;2022-12-10T11:33:02;94395.44;;;0.70;100.00
20860;BME280;10590;48.154;11.514;2022-12-10T11:38:13;94393.84;;;0.69;100.00
20860;BME280;10590;48.154;11.514;2022-12-10T11:43:40;94405.56;;;0.68;100.00
20860;BME280;10590;48.154;11.514;2022-12-10T11:48:55;94389.41;;;0.84;100.00
20860;BME280;10590;48.154;11.514;2022-12-10T11:54:11;94400.38;;;0.77;100.00
20860;BME280;10590;48.154;11.514;2022-12-10T11:59:21;94399.41;;;0.54;100.00
20860;BME280;10590;48.154;11.514;2022-12-10T12:04:43;94411.06;;;0.72;100.00
20860;BME280;10590;48.154;11.514;2022-12-10T12:09:57;94410.22;;;0.39;100.00
20860;BME280;10590;48.154;11.514;2022-12-10T12:15:13;94409.97;;;0.21;100.00
20860;BME280;10590;48.154;11.514;2022-12-10T12:20:22;94416.25;;;0.26;100.00
20860;BME280;10590;48.154;11.514;2022-12-10T12:25:28;94414.81;;;0.14;100.00
20860;BME280;10590;48.154;11.514;2022-12-10T12:30:32;94409.13;;;0.59;100.00
20860;BME280;10590;48.154;11.514;2022-12-10T12:35:40;94411.50;;;0.60;100.00
20860;BME280;10590;48.154;11.514;2022-12-10T12:40:46;94421.91;;;0.38;100.00
20860;BME280;10590;48.154;11.514;2022-12-10T12:45:53;94427.28;;;0.33;100.00
20860;BME280;10590;48.154;11.514;2022-12-10T12:51:00;94432.06;;;0.49;100.00
20860;BME280;10590;48.154;11.514;2022-12-10T12:56:05;94446.50;;;0.24;100.00
20860;BME280;10590;48.154;11.514;2022-12-10T13:01:18;94443.75;;;0.30;100.00
20860;BME280;10590;48.154;11.514;2022-12-10T13:06:27;94448.34;;;0.43;100.00
20860;BME280;10590;48.154;11.514;2022-12-10T13:11:33;94451.47;;;0.07;100.00
20860;BME280;10590;48.154;11.514;2022-12-10T13:16:44;94461.78;;;0.09;100.00
20860;BME280;10590;48.154;11.514;2022-12-10T13:22:05;94465.66;;;0.16;100.00
20860;BME280;10590;48.154;11.514;2022-12-10T13:27:16;94461.00;;;0.27;100.00
20860;BME280;10590;48.154;11.514;2022-12-10T13:32:20;94468.81;;;0.18;100.00
20860;BME280;10590;48.154;11.514;2022-12-10T13:37:30;94487.13;;;0.15;100.00
20860;BME280;10590;48.154;11.514;2022-12-10T13:42:33;94490.97;;;0.04;100.00
20860;BME280;10590;48.154;11.514;2022-12-10T13:47:54;94503.09;;;0.10;100.00
20860;BME280;10590;48.154;11.514;2022-12-10T13:53:03;94506.44;;;-0.04;100.00
20860;BME280;10590;48.154;11.514;2022-12-10T13:58:22;94504.69;;;-0.13;100.00
20860;BME280;10590;48.154;11.514;2022-12-10T14:03:47;94519.91;;;0.00;100.00
20860;BME280;10590;48.154;11.514;2022-12-10T14:09:03;94513.25;;;-0.21;100.00
20860;BME280;10590;48.154;11.514;2022-12-10T14:14:10;94532.53;;;0.08;100.00
20860;BME280;10590;48.154;11.514;2022-12-10T14:19:14;94536.53;;;0.06;100.00
20860;BME280;10590;48.154;11.514;2022-12-10T14:24:30;94539.56;;;-0.06;100.00
20860;BME280;10590;48.154;11.514;2022-12-10T14:29:33;94527.09;;;-0.30;100.00
20860;BME280;10590;48.154;11.514;2022-12-10T14:34:37;94540.56;;;-0.26;100.00
20860;BME280;10590;48.154;11.514;2022-12-10T14:39:41;94544.56;;;-0.29;100.00
20860;BME280;10590;48.154;11.514;2022-12-10T14:44:45;94556.78;;;-0.33;100.00
20860;BME280;10590;48.154;11.514;2022-12-10T14:49:49;94561.22;;;-0.28;100.00
20860;BME280;10590;48.154;11.514;2022-12-10T14:54:52;94577.81;;;-0.17;100.00
20860;BME280;10590;48.154;11.514;2022-12-10T14:59:59;94581.34;;;-0.27;100.00
20860;BME280;10590;48.154;11.514;2022-12-10T15:05:10;94583.72;;;-0.26;100.00
20860;BME280;10590;48.154;11.514;2022-12-10T15:10:18;94585.81;;;-0.22;100.00
20860;BME280;10590;48.154;11.514;2022-12-10T15:15:25;94593.84;;;-0.33;100.00
20860;BME280;10590;48.154;11.514;2022-12-10T15:20:31;94602.91;;;-0.39;100.00
20860;BME280;10590;48.154;11.514;2022-12-10T15:25:45;94605.56;;;-0.44;100.00
20860;BME280;10590;48.154;11.514;2022-12-10T15:30:47;94619.84;;;-0.40;100.00
20860;BME280;10590;48.154;11.514;2022-12-10T15:35:54;94610.59;;;-0.77;100.00
20860;BME280;10590;48.154;11.514;2022-12-10T15:41:21;94604.06;;;-0.55;100.00
20860;BME280;10590;48.154;11.514;2022-12-10T15:46:23;94620.78;;;-0.60;100.00
20860;BME280;10590;48.154;11.514;2022-12-10T15:51:25;94618.47;;;-0.66;100.00
20860;BME280;10590;48.154;11.514;2022-12-10T15:56:28;94633.03;;;-0.69;100.00
20860;BME280;10590;48.154;11.514;2022-12-10T16:01:30;94644.59;;;-0.94;100.00
20860;BME280;10590;48.154;11.514;2022-12-10T16:06:31;94653.78;;;-0.86;100.00
20860;BME280;10590;48.154;11.514;2022-12-10T16:11:34;94652.41;;;-0.79;100.00
20860;BME280;10590;48.154;11.514;2022-12-10T16:16:36;94659.88;;;-0.91;100.00
20860;BME280;10590;48.154;11.514;2022-12-10T16:21:38;94661.41;;;-0.80;100.00
20860;BME280;10590;48.154;11.514;2022-12-10T16:26:43;94663.59;;;-0.92;100.00
20860;BME280;10590;48.154;11.514;2022-12-10T16:31:44;94665.22;;;-0.96;100.00
20860;BME280;10590;48.154;11.514;2022-12-10T16:36:46;94666.03;;;-1.01;100.00
20860;BME280;10590;48.154;11.514;2022-12-10T16:41:52;94672.59;;;-0.93;100.00
20860;BME280;10590;48.154;11.514;2022-12-10T16:46:54;94676.63;;;-1.01;100.00
20860;BME280;10590;48.154;11.514;2022-12-10T16:51:55;94680.03;;;-1.00;100.00
20860;BME280;10590;48.154;11.514;2022-12-10T16:56:58;94684.28;;;-1.04;100.00
20860;BME280;10590;48.154;11.514;2022-12-10T17:02:00;94681.50;;;-0.79;100.00
20860;BME280;10590;48.154;11.514;2022-12-10T17:07:02;94690.91;;;-1.02;100.00
20860;BME280;10590;48.154;11.514;2022-12-10T17:12:06;94701.22;;;-1.05;100.00
20860;BME280;10590;48.154;11.514;2022-12-10T17:17:08;94699.34;;;-1.00;100.00
20860;BME280;10590;48.154;11.514;2022-12-10T17:22:10;94703.66;;;-1.14;100.00
20860;BME280;10590;48.154;11.514;2022-12-10T17:27:17;94709.38;;;-0.96;100.00
20860;BME280;10590;48.154;11.514;2022-12-10T17:32:21;94712.28;;;-0.93;100.00
20860;BME280;10590;48.154;11.514;2022-12-10T17:37:24;94717.09;;;-1.05;100.00
20860;BME280;10590;48.154;11.514;2022-12-10T17:42:28;94723.25;;;-1.25;100.00
20860;BME280;10590;48.154;11.514;2022-12-10T17:47:29;94729.28;;;-1.14;100.00
20860;BME280;10590;48.154;11.514;2022-12-10T17:52:32;94729.28;;;-1.14;100.00
20860;BME280;10590;48.154;11.514;2022-12-10T17:57:35;94727.50;;;-1.34;100.00
20860;BME280;10590;48.154;11.514;2022-12-10T18:02:37;94729.34;;;-1.35;100.00
20860;BME280;10590;48.154;11.514;2022-12-10T18:07:38;94742.00;;;-1.16;100.00
20860;BME280;10590;48.154;11.514;2022-12-10T18:12:41;94733.53;;;-1.18;100.00
20860;BME280;10590;48.154;11.514;2022-12-10T18:17:43;94734.91;;;-1.31;100.00
20860;BME280;10590;48.154;11.514;2022-12-10T18:22:46;94733.34;;;-1.37;100.00
20860;BME280;10590;48.154;11.514;2022-12-10T18:27:49;94727.84;;;-1.56;100.00
20860;BME280;10590;48.154;11.514;2022-12-10T18:32:52;94741.31;;;-1.53;100.00
20860;BME280;10590;48.154;11.514;2022-12-10T18:37:54;94749.72;;;-1.35;100.00
20860;BME280;10590;48.154;11.514;2022-12-10T18:42:57;94756.56;;;-1.34;100.00
20860;BME280;10590;48.154;11.514;2022-12-10T18:47:58;94756.09;;;-1.41;100.00
20860;BME280;10590;48.154;11.514;2022-12-10T18:53:00;94769.28;;;-1.36;100.00
20860;BME280;10590;48.154;11.514;2022-12-10T18:58:03;94764.25;;;-1.43;100.00
20860;BME280;10590;48.154;11.514;2022-12-10T19:03:05;94756.06;;;-1.46;100.00
20860;BME280;10590;48.154;11.514;2022-12-10T19:08:08;94764.25;;;-1.38;100.00
20860;BME280;10590;48.154;11.514;2022-12-10T19:13:12;94772.19;;;-1.43;100.00
20860;BME280;10590;48.154;11.514;2022-12-10T19:18:15;94774.31;;;-1.45;100.00
20860;BME280;10590;48.154;11.514;2022-12-10T19:23:16;94783.31;;;-1.61;100.00
20860;BME280;10590;48.154;11.514;2022-12-10T19:28:19;94778.28;;;-1.37;100.00
20860;BME280;10590;48.154;11.514;2022-12-10T19:33:21;94780.66;;;-1.41;100.00
20860;BME280;10590;48.154;11.514;2022-12-10T19:38:23;94778.25;;;-1.42;100.00
20860;BME280;10590;48.154;11.514;2022-12-10T19:43:26;94776.13;;;-1.35;100.00
20860;BME280;10590;48.154;11.514;2022-12-10T19:48:27;94765.56;;;-1.35;100.00
20860;BME280;10590;48.154;11.514;2022-12-10T19:53:29;94771.38;;;-1.38;100.00
20860;BME280;10590;48.154;11.514;2022-12-10T19:58:32;94773.00;;;-1.58;100.00
20860;BME280;10590;48.154;11.514;2022-12-10T20:03:33;94774.59;;;-1.52;100.00
20860;BME280;10590;48.154;11.514;2022-12-10T20:08:35;94780.16;;;-1.63;100.00
20860;BME280;10590;48.154;11.514;2022-12-10T20:13:38;94782.78;;;-1.48;100.00
20860;BME280;10590;48.154;11.514;2022-12-10T20:18:40;94785.72;;;-1.65;100.00
20860;BME280;10590;48.154;11.514;2022-12-10T20:23:42;94778.28;;;-1.58;100.00
20860;BME280;10590;48.154;11.514;2022-12-10T20:28:46;94776.19;;;-1.66;100.00
20860;BME280;10590;48.154;11.514;2022-12-10T20:33:47;94780.94;;;-1.58;100.00
20860;BME280;10590;48.154;11.514;2022-12-10T20:38:50;94781.72;;;-1.62;100.00
20860;BME280;10590;48.154;11.514;2022-12-10T20:43:52;94786.75;;;-1.61;100.00
20860;BME280;10590;48.154;11.514;2022-12-10T20:48:54;94780.69;;;-1.82;100.00
20860;BME280;10590;48.154;11.514;2022-12-10T20:53:58;94782.03;;;-1.79;100.00
20860;BME280;10590;48.154;11.514;2022-12-10T20:59:02;94792.31;;;-1.73;100.00
20860;BME280;10590;48.154;11.514;2022-12-10T21:04:04;94782.81;;;-1.79;100.00
20860;BME280;10590;48.154;11.514;2022-12-10T21:09:05;94796.78;;;-1.78;100.00
20860;BME280;10590;48.154;11.514;2022-12-10T21:14:08;94793.38;;;-1.68;100.00
20860;BME280;10590;48.154;11.514;2022-12-10T21:19:11;94799.44;;;-1.83;100.00
20860;BME280;10590;48.154;11.514;2022-12-10T21:24:13;94803.41;;;-1.81;100.00
20860;BME280;10590;48.154;11.514;2022-12-10T21:29:16;94797.06;;;-1.85;100.00
20860;BME280;10590;48.154;11.514;2022-12-10T21:34:18;94806.28;;;-1.77;100.00
20860;BME280;10590;48.154;11.514;2022-12-10T21:39:20;94794.97;;;-1.88;100.00
20860;BME280;10590;48.154;11.514;2022-12-10T21:44:23;94789.13;;;-1.75;100.00
20860;BME280;10590;48.154;11.514;2022-12-10T21:49:24;94791.78;;;-1.75;100.00
20860;BME280;10590;48.154;11.514;2022-12-10T21:54:26;94787.03;;;-1.73;100.00
20860;BME280;10590;48.154;11.514;2022-12-10T21:59:29;94797.06;;;-1.85;100.00
20860;BME280;10590;48.154;11.514;2022-12-10T22:04:30;94798.13;;;-2.06;100.00
20860;BME280;10590;48.154;11.514;2022-12-10T22:09:32;94801.00;;;-1.77;100.00
20860;BME280;10590;48.154;11.514;2022-12-10T22:14:35;94811.06;;;-1.74;100.00
20860;BME280;10590;48.154;11.514;2022-12-10T22:19:37;94808.16;;;-1.83;100.00
20860;BME280;10590;48.154;11.514;2022-12-10T22:24:38;94802.88;;;-1.93;100.00
20860;BME280;10590;48.154;11.514;2022-12-10T22:29:41;94805.25;;;-1.81;100.00
20860;BME280;10590;48.154;11.514;2022-12-10T22:34:43;94810.53;;;-1.86;100.00
20860;BME280;10590;48.154;11.514;2022-12-10T22:39:45;94808.69;;;-2.06;100.00
20860;BME280;10590;48.154;11.514;2022-12-10T22:44:48;94811.06;;;-1.84;100.00
20860;BME280;10590;48.154;11.514;2022-12-10T22:49:50;94802.88;;;-1.88;100.00
20860;BME280;10590;48.154;11.514;2022-12-10T22:54:51;94798.66;;;-1.79;100.00
20860;BME280;10590;48.154;11.514;2022-12-10T22:59:54;94800.22;;;-1.93;100.00
20860;BME280;10590;48.154;11.514;2022-12-10T23:04:56;94797.09;;;-2.00;100.00
20860;BME280;10590;48.154;11.514;2022-12-10T23:09:57;94797.06;;;-1.95;100.00
20860;BME280;10590;48.154;11.514;2022-12-10T23:15:00;94797.59;;;-1.98;100.00
20860;BME280;10590;48.154;11.514;2022-12-10T23:20:03;94800.22;;;-1.93;100.00
20860;BME280;10590;48.154;11.514;2022-12-10T23:25:05;94794.16;;;-1.99;100.00
20860;BME280;10590;48.154;11.514;2022-12-10T23:30:10;94790.44;;;-2.18;100.00
20860;BME280;10590;48.154;11.514;2022-12-10T23:35:12;94787.78;;;-2.28;100.00
20860;BME280;10590;48.154;11.514;2022-12-10T23:40:14;94795.19;;;-2.25;100.00
20860;BME280;10590;48.154;11.514;2022-12-10T23:45:17;94786.22;;;-2.24;100.00
20860;BME280;10590;48.154;11.514;2022-12-10T23:50:20;94794.13;;;-2.24;100.00
20860;BME280;10590;48.154;11.514;2022-12-10T23:55:22;94784.91;;;-2.22;100.00
